createdAt,value
2023-01-19T00:00:24.601Z,99184.37
2023-01-19T00:01:47.620Z,99193.89
2023-01-19T00:02:50.928Z,99198.65
2023-01-19T00:03:53.857Z,99205.64
2023-01-19T00:04:56.792Z,99210.72
2023-01-19T00:06:05.148Z,99210.40
2023-01-19T00:07:08.023Z,99209.98
2023-01-19T00:08:15.011Z,99210.66
2023-01-19T00:09:18.097Z,99206.11
2023-01-19T00:10:21.576Z,99203.63
2023-01-19T00:11:24.557Z,99210.39
2023-01-19T00:12:27.920Z,99215.45
2023-01-19T00:13:30.895Z,99219.16
2023-01-19T00:14:33.850Z,99219.91
2023-01-19T00:15:37.070Z,99222.94
2023-01-19T00:16:39.924Z,99222.36
2023-01-19T00:17:42.839Z,99223.15
2023-01-19T00:18:46.035Z,99224.00
2023-01-19T00:19:48.940Z,99219.33
2023-01-19T00:20:51.830Z,99216.86
2023-01-19T00:21:55.228Z,99214.94
2023-01-19T00:22:58.545Z,99218.90
2023-01-19T00:24:01.729Z,99219.36
2023-01-19T00:25:04.857Z,99223.29
2023-01-19T00:26:08.751Z,99226.24
2023-01-19T00:27:11.783Z,99229.38
2023-01-19T00:28:16.979Z,99226.69
2023-01-19T00:29:20.572Z,99235.36
2023-01-19T00:30:23.614Z,99230.60
2023-01-19T00:31:26.548Z,99235.40
2023-01-19T00:32:29.436Z,99238.35
2023-01-19T00:33:32.331Z,99237.33
2023-01-19T00:34:39.793Z,99241.88
2023-01-19T00:35:42.815Z,99242.29
2023-01-19T00:36:45.704Z,99244.61
2023-01-19T00:37:48.562Z,99243.13
2023-01-19T00:38:51.431Z,99244.93
2023-01-19T00:39:54.321Z,99248.56
2023-01-19T00:40:57.358Z,99253.23
2023-01-19T00:42:18.976Z,99254.95
2023-01-19T00:43:21.974Z,99255.31
2023-01-19T00:44:25.038Z,99253.60
2023-01-19T00:45:27.990Z,99251.95
2023-01-19T00:46:30.828Z,99251.42
2023-01-19T00:47:33.750Z,99249.23
2023-01-19T00:48:36.756Z,99252.55
2023-01-19T00:49:40.123Z,99253.33
2023-01-19T00:50:42.940Z,99253.97
2023-01-19T00:51:45.888Z,99253.40
2023-01-19T00:52:48.934Z,99254.25
2023-01-19T00:53:51.851Z,99258.27
2023-01-19T00:54:54.733Z,99254.71
2023-01-19T00:55:57.588Z,99253.64
2023-01-19T00:57:00.502Z,99251.59
2023-01-19T00:58:03.364Z,99256.06
2023-01-19T00:59:06.717Z,99252.27
2023-01-19T01:00:15.403Z,99255.34
2023-01-19T01:01:18.538Z,99251.81
2023-01-19T01:02:21.742Z,99254.70
2023-01-19T01:03:28.337Z,99255.83
2023-01-19T01:04:31.341Z,99257.89
2023-01-19T01:05:34.269Z,99258.05
2023-01-19T01:06:37.135Z,99258.42
2023-01-19T01:07:41.808Z,99259.95
2023-01-19T01:08:44.670Z,99256.85
2023-01-19T01:09:47.660Z,99261.12
2023-01-19T01:10:51.519Z,99255.17
2023-01-19T01:11:54.746Z,99260.98
2023-01-19T01:13:21.637Z,99254.18
2023-01-19T01:14:20.496Z,99250.79
2023-01-19T01:15:23.745Z,99249.76
2023-01-19T01:16:26.651Z,99246.27
2023-01-19T01:17:29.498Z,99246.06
2023-01-19T01:18:32.405Z,99243.48
2023-01-19T01:19:35.440Z,99244.18
2023-01-19T01:20:38.374Z,99242.09
2023-01-19T01:21:41.679Z,99237.17
2023-01-19T01:22:47.586Z,99237.08
2023-01-19T01:23:50.909Z,99238.98
2023-01-19T01:24:53.769Z,99234.33
2023-01-19T01:25:56.681Z,99235.92
2023-01-19T01:26:59.645Z,99232.23
2023-01-19T01:28:03.124Z,99232.50
2023-01-19T01:29:06.581Z,99233.23
2023-01-19T01:30:12.224Z,99237.13
2023-01-19T01:31:15.189Z,99233.08
2023-01-19T01:32:18.578Z,99232.99
2023-01-19T01:33:41.158Z,99227.55
2023-01-19T01:34:44.735Z,99223.21
2023-01-19T01:35:49.785Z,99217.49
2023-01-19T01:36:52.710Z,99219.00
2023-01-19T01:37:59.143Z,99214.71
2023-01-19T01:39:02.529Z,99214.90
2023-01-19T01:40:06.482Z,99214.94
2023-01-19T01:41:09.800Z,99214.36
2023-01-19T01:42:25.609Z,99215.08
2023-01-19T01:43:47.113Z,99215.86
2023-01-19T01:44:53.630Z,99218.94
2023-01-19T01:45:56.477Z,99217.94
2023-01-19T01:47:00.517Z,99219.94
2023-01-19T01:48:18.614Z,99219.02
2023-01-19T01:49:21.581Z,99217.80
2023-01-19T01:50:29.857Z,99218.48
2023-01-19T01:51:41.925Z,99219.97
2023-01-19T01:53:07.467Z,99220.11
2023-01-19T01:54:14.153Z,99220.23
2023-01-19T01:55:18.456Z,99220.92
2023-01-19T01:56:28.304Z,99223.04
2023-01-19T01:57:31.070Z,99221.67
2023-01-19T01:58:35.889Z,99220.05
2023-01-19T01:59:43.369Z,99218.15
2023-01-19T02:01:04.850Z,99221.76
2023-01-19T02:02:38.321Z,99220.18
2023-01-19T02:03:42.403Z,99218.36
2023-01-19T02:04:51.122Z,99215.78
2023-01-19T02:05:59.395Z,99214.69
2023-01-19T02:07:20.957Z,99216.94
2023-01-19T02:08:54.220Z,99215.20
2023-01-19T02:10:15.585Z,99218.54
2023-01-19T02:11:37.007Z,99222.89
2023-01-19T02:13:00.921Z,99222.13
2023-01-19T02:14:05.605Z,99226.39
2023-01-19T02:15:17.810Z,99226.11
2023-01-19T02:16:21.166Z,99228.70
2023-01-19T02:17:24.235Z,99225.63
2023-01-19T02:18:29.976Z,99229.48
2023-01-19T02:19:51.189Z,99228.15
2023-01-19T02:21:22.252Z,99228.88
2023-01-19T02:22:36.158Z,99225.02
2023-01-19T02:23:49.497Z,99224.61
2023-01-19T02:24:53.323Z,99226.71
2023-01-19T02:25:56.248Z,99228.15
2023-01-19T02:27:00.382Z,99227.43
2023-01-19T02:28:03.592Z,99230.20
2023-01-19T02:29:16.444Z,99228.50
2023-01-19T02:30:19.924Z,99229.54
2023-01-19T02:31:23.641Z,99228.50
2023-01-19T02:32:26.899Z,99232.84
2023-01-19T02:33:30.098Z,99234.02
2023-01-19T02:34:33.009Z,99236.23
2023-01-19T02:35:38.747Z,99240.19
2023-01-19T02:37:00.255Z,99239.58
2023-01-19T02:38:04.205Z,99238.90
2023-01-19T02:39:09.855Z,99240.05
2023-01-19T02:40:15.574Z,99239.81
2023-01-19T02:41:22.964Z,99235.05
2023-01-19T02:42:29.737Z,99236.48
2023-01-19T02:43:33.536Z,99238.63
2023-01-19T02:44:38.436Z,99239.29
2023-01-19T02:45:43.299Z,99234.03
2023-01-19T02:46:46.249Z,99233.54
2023-01-19T02:47:53.134Z,99236.36
2023-01-19T02:49:00.385Z,99234.23
2023-01-19T02:50:03.319Z,99231.70
2023-01-19T02:51:17.068Z,99233.00
2023-01-19T02:52:20.249Z,99229.06
2023-01-19T02:53:32.247Z,99232.27
2023-01-19T02:54:50.631Z,99230.38
2023-01-19T02:56:28.969Z,99230.15
2023-01-19T02:57:47.895Z,99227.18
2023-01-19T02:59:24.844Z,99223.59
2023-01-19T03:00:28.316Z,99223.42
2023-01-19T03:01:54.810Z,99226.65
2023-01-19T03:03:19.649Z,99224.05
2023-01-19T03:04:49.126Z,99221.31
2023-01-19T03:06:04.087Z,99223.59
2023-01-19T03:07:29.047Z,99222.63
2023-01-19T03:08:41.067Z,99220.04
2023-01-19T03:10:07.815Z,99216.11
2023-01-19T03:11:14.603Z,99215.76
2023-01-19T03:12:38.421Z,99215.18
2023-01-19T03:14:02.117Z,99214.15
2023-01-19T03:15:20.623Z,99211.73
2023-01-19T03:16:32.687Z,99209.02
2023-01-19T03:17:37.293Z,99214.58
2023-01-19T03:18:44.103Z,99213.96
2023-01-19T03:19:49.664Z,99221.91
2023-01-19T03:20:57.121Z,99226.61
2023-01-19T03:22:07.457Z,99230.36
2023-01-19T03:23:14.774Z,99231.23
2023-01-19T03:24:21.613Z,99236.86
2023-01-19T03:25:26.284Z,99235.38
2023-01-19T03:26:35.029Z,99235.38
2023-01-19T03:27:41.421Z,99235.81
2023-01-19T03:28:46.949Z,99239.95
2023-01-19T03:29:57.955Z,99242.51
2023-01-19T03:31:12.548Z,99245.11
2023-01-19T03:32:18.120Z,99249.02
2023-01-19T03:33:27.829Z,99248.09
2023-01-19T03:34:31.069Z,99248.48
2023-01-19T03:35:37.384Z,99252.23
2023-01-19T03:36:51.169Z,99256.02
2023-01-19T03:37:58.251Z,99248.14
2023-01-19T03:39:04.601Z,99249.72
2023-01-19T03:40:09.217Z,99251.56
2023-01-19T03:41:16.865Z,99250.69
2023-01-19T03:42:20.800Z,99254.14
2023-01-19T03:43:25.516Z,99252.13
2023-01-19T03:44:30.838Z,99256.29
2023-01-19T03:45:37.062Z,99256.31
2023-01-19T03:46:41.041Z,99262.41
2023-01-19T03:47:45.142Z,99259.17
2023-01-19T03:48:49.731Z,99264.83
2023-01-19T03:49:54.041Z,99265.03
2023-01-19T03:50:57.085Z,99265.08
2023-01-19T03:52:00.520Z,99265.94
2023-01-19T03:53:08.178Z,99265.57
2023-01-19T03:54:11.716Z,99265.35
2023-01-19T03:55:14.787Z,99266.13
2023-01-19T03:56:20.595Z,99267.42
2023-01-19T03:57:23.643Z,99271.43
2023-01-19T03:58:26.695Z,99271.88
2023-01-19T03:59:29.568Z,99273.27
2023-01-19T04:00:33.721Z,99271.38
2023-01-19T04:01:36.668Z,99275.44
2023-01-19T04:02:39.799Z,99277.25
2023-01-19T04:03:43.590Z,99276.45
2023-01-19T04:04:46.458Z,99277.38
2023-01-19T04:05:49.461Z,99274.53
2023-01-19T04:06:52.398Z,99277.88
2023-01-19T04:07:55.957Z,99275.61
2023-01-19T04:08:58.905Z,99277.33
2023-01-19T04:10:01.769Z,99280.98
2023-01-19T04:11:04.796Z,99284.26
2023-01-19T04:12:08.423Z,99284.41
2023-01-19T04:13:11.290Z,99285.80
2023-01-19T04:14:14.198Z,99291.30
2023-01-19T04:15:18.749Z,99294.83
2023-01-19T04:16:22.162Z,99289.28
2023-01-19T04:17:25.746Z,99291.90
2023-01-19T04:18:30.223Z,99293.63
2023-01-19T04:19:33.133Z,99300.33
2023-01-19T04:20:35.934Z,99295.15
2023-01-19T04:21:38.903Z,99293.66
2023-01-19T04:22:42.671Z,99296.34
2023-01-19T04:23:46.159Z,99296.23
2023-01-19T04:24:48.983Z,99297.33
2023-01-19T04:26:07.592Z,99300.95
2023-01-19T04:27:10.990Z,99302.17
2023-01-19T04:28:13.923Z,99304.64
2023-01-19T04:29:16.770Z,99304.92
2023-01-19T04:30:19.972Z,99309.46
2023-01-19T04:31:23.421Z,99309.52
2023-01-19T04:32:26.789Z,99308.35
2023-01-19T04:33:29.794Z,99309.21
2023-01-19T04:34:33.021Z,99309.00
2023-01-19T04:35:35.959Z,99311.10
2023-01-19T04:36:38.839Z,99312.77
2023-01-19T04:37:41.804Z,99310.48
2023-01-19T04:38:46.691Z,99314.67
2023-01-19T04:39:49.658Z,99315.48
2023-01-19T04:40:53.678Z,99317.95
2023-01-19T04:41:57.726Z,99317.30
2023-01-19T04:43:01.041Z,99316.38
2023-01-19T04:44:04.347Z,99315.98
2023-01-19T04:45:07.926Z,99318.52
2023-01-19T04:46:10.890Z,99320.88
2023-01-19T04:47:13.834Z,99324.23
2023-01-19T04:48:18.502Z,99323.66
2023-01-19T04:49:21.469Z,99327.59
2023-01-19T04:50:25.054Z,99327.52
2023-01-19T04:51:28.966Z,99329.09
2023-01-19T04:52:35.144Z,99334.94
2023-01-19T04:53:38.128Z,99337.94
2023-01-19T04:54:41.111Z,99337.83
2023-01-19T04:55:44.623Z,99337.50
2023-01-19T04:56:47.546Z,99340.33
2023-01-19T04:57:50.432Z,99341.67
2023-01-19T04:58:53.325Z,99341.35
2023-01-19T04:59:57.506Z,99341.55
2023-01-19T05:01:00.716Z,99338.35
2023-01-19T05:02:03.633Z,99337.80
2023-01-19T05:03:06.673Z,99343.45
2023-01-19T05:04:09.652Z,99345.17
2023-01-19T05:05:13.254Z,99339.93
2023-01-19T05:06:16.197Z,99338.08
2023-01-19T05:07:19.069Z,99338.42
2023-01-19T05:08:21.982Z,99337.19
2023-01-19T05:09:26.008Z,99338.70
2023-01-19T05:10:28.894Z,99340.77
2023-01-19T05:11:31.750Z,99346.29
2023-01-19T05:12:34.821Z,99351.58
2023-01-19T05:13:37.710Z,99354.15
2023-01-19T05:14:40.603Z,99359.66
2023-01-19T05:15:43.603Z,99356.73
2023-01-19T05:16:46.637Z,99354.80
2023-01-19T05:17:49.590Z,99351.35
2023-01-19T05:18:52.875Z,99348.62
2023-01-19T05:19:55.953Z,99350.21
2023-01-19T05:20:58.762Z,99350.20
2023-01-19T05:22:05.626Z,99348.52
2023-01-19T05:23:08.500Z,99342.98
2023-01-19T05:24:11.509Z,99339.45
2023-01-19T05:25:14.415Z,99342.70
2023-01-19T05:26:17.345Z,99343.93
2023-01-19T05:27:20.389Z,99342.66
2023-01-19T05:28:23.354Z,99340.89
2023-01-19T05:29:26.355Z,99344.17
2023-01-19T05:30:29.193Z,99342.73
2023-01-19T05:31:32.229Z,99344.63
2023-01-19T05:32:35.178Z,99350.16
2023-01-19T05:33:38.035Z,99356.29
2023-01-19T05:34:41.007Z,99362.77
2023-01-19T05:35:43.892Z,99365.33
2023-01-19T05:36:46.798Z,99368.79
2023-01-19T05:37:49.658Z,99371.71
2023-01-19T05:38:52.802Z,99372.86
2023-01-19T05:39:55.673Z,99372.88
2023-01-19T05:40:58.924Z,99372.76
2023-01-19T05:42:01.800Z,99372.96
2023-01-19T05:43:05.568Z,99373.80
2023-01-19T05:44:09.673Z,99370.64
2023-01-19T05:45:12.555Z,99365.84
2023-01-19T05:46:15.525Z,99367.23
2023-01-19T05:47:18.407Z,99361.61
2023-01-19T05:48:21.439Z,99359.36
2023-01-19T05:49:24.318Z,99364.60
2023-01-19T05:50:27.234Z,99362.96
2023-01-19T05:51:35.201Z,99364.15
2023-01-19T05:52:38.049Z,99366.23
2023-01-19T05:53:41.069Z,99362.02
2023-01-19T05:54:43.967Z,99365.76
2023-01-19T05:55:46.814Z,99367.31
2023-01-19T05:56:49.655Z,99365.96
2023-01-19T05:57:52.552Z,99367.73
2023-01-19T05:58:55.676Z,99375.73
2023-01-19T05:59:58.538Z,99375.67
2023-01-19T06:01:06.648Z,99377.97
2023-01-19T06:02:09.638Z,99379.62
2023-01-19T06:03:12.876Z,99384.79
2023-01-19T06:04:15.779Z,99383.23
2023-01-19T06:05:18.680Z,99383.92
2023-01-19T06:06:21.686Z,99385.77
2023-01-19T06:07:25.665Z,99386.46
2023-01-19T06:08:29.833Z,99380.39
2023-01-19T06:09:33.835Z,99383.01
2023-01-19T06:10:36.663Z,99381.84
2023-01-19T06:11:39.602Z,99385.08
2023-01-19T06:12:43.066Z,99385.73
2023-01-19T06:13:46.916Z,99395.12
2023-01-19T06:14:49.843Z,99392.85
2023-01-19T06:16:00.009Z,99395.23
2023-01-19T06:17:02.957Z,99402.13
2023-01-19T06:18:05.831Z,99405.79
2023-01-19T06:19:08.763Z,99413.58
2023-01-19T06:20:14.101Z,99418.43
2023-01-19T06:21:17.171Z,99422.65
2023-01-19T06:23:58.861Z,99429.56
2023-01-19T06:25:01.851Z,99435.78
2023-01-19T06:26:05.066Z,99430.14
2023-01-19T06:27:08.722Z,99433.71
2023-01-19T06:28:11.643Z,99435.85
2023-01-19T06:29:18.521Z,99438.27
2023-01-19T06:30:21.839Z,99440.23
2023-01-19T06:31:24.785Z,99436.27
2023-01-19T06:32:27.648Z,99440.38
2023-01-19T06:33:31.621Z,99441.44
2023-01-19T06:34:34.922Z,99444.84
2023-01-19T06:35:37.852Z,99447.96
2023-01-19T06:36:40.717Z,99452.38
2023-01-19T06:37:43.634Z,99451.52
2023-01-19T06:38:46.475Z,99451.85
2023-01-19T06:39:49.323Z,99454.55
2023-01-19T06:41:02.858Z,99456.10
2023-01-19T06:42:06.196Z,99457.23
2023-01-19T06:43:09.887Z,99457.20
2023-01-19T06:44:12.871Z,99459.30
2023-01-19T06:45:16.604Z,99460.29
2023-01-19T06:46:19.499Z,99466.61
2023-01-19T06:47:22.589Z,99469.65
2023-01-19T06:48:26.273Z,99469.77
2023-01-19T06:49:29.112Z,99473.04
2023-01-19T06:50:32.204Z,99473.01
2023-01-19T06:51:35.471Z,99474.56
2023-01-19T06:52:42.648Z,99475.40
2023-01-19T06:53:45.720Z,99472.40
2023-01-19T06:54:48.808Z,99472.41
2023-01-19T06:55:52.976Z,99476.27
2023-01-19T06:56:56.268Z,99473.92
2023-01-19T06:57:59.907Z,99474.31
2023-01-19T06:59:02.798Z,99472.55
2023-01-19T07:00:08.311Z,99470.16
2023-01-19T07:01:11.419Z,99469.25
2023-01-19T07:02:26.400Z,99458.96
2023-01-19T07:03:32.281Z,99460.89
2023-01-19T07:04:35.152Z,99457.36
2023-01-19T07:05:38.094Z,99456.02
2023-01-19T07:06:41.868Z,99455.12
2023-01-19T07:07:45.640Z,99454.52
2023-01-19T07:08:48.512Z,99453.52
2023-01-19T07:09:54.081Z,99451.79
2023-01-19T07:11:24.891Z,99449.04
2023-01-19T07:12:25.381Z,99447.39
2023-01-19T07:13:28.811Z,99443.44
2023-01-19T07:14:34.599Z,99441.86
2023-01-19T07:15:37.757Z,99442.73
2023-01-19T07:16:43.034Z,99442.02
2023-01-19T07:17:49.345Z,99442.89
2023-01-19T07:18:52.300Z,99446.90
2023-01-19T07:19:55.193Z,99450.95
2023-01-19T07:20:58.852Z,99446.90
2023-01-19T07:22:03.341Z,99450.70
2023-01-19T07:23:06.716Z,99454.18
2023-01-19T07:24:09.548Z,99447.73
2023-01-19T07:25:13.798Z,99451.40
2023-01-19T07:26:19.922Z,99453.34
2023-01-19T07:27:22.883Z,99447.94
2023-01-19T07:28:25.766Z,99447.66
2023-01-19T07:29:28.672Z,99440.77
2023-01-19T07:30:31.595Z,99442.53
2023-01-19T07:31:34.647Z,99439.65
2023-01-19T07:32:38.441Z,99445.27
2023-01-19T07:33:41.290Z,99446.83
2023-01-19T07:34:44.140Z,99450.89
2023-01-19T07:35:50.820Z,99450.64
2023-01-19T07:36:53.711Z,99448.25
2023-01-19T07:37:56.554Z,99448.79
2023-01-19T07:38:59.751Z,99451.77
2023-01-19T07:40:02.602Z,99449.73
2023-01-19T07:41:09.342Z,99453.52
2023-01-19T07:42:13.178Z,99451.91
2023-01-19T07:43:16.953Z,99455.53
2023-01-19T07:44:19.994Z,99461.90
2023-01-19T07:45:22.998Z,99461.27
2023-01-19T07:46:25.923Z,99465.77
2023-01-19T07:47:28.770Z,99467.50
2023-01-19T07:48:31.730Z,99464.20
2023-01-19T07:49:35.607Z,99466.46
2023-01-19T07:50:38.545Z,99473.04
2023-01-19T07:51:41.400Z,99470.48
2023-01-19T07:52:44.793Z,99476.34
2023-01-19T07:53:50.749Z,99473.81
2023-01-19T07:54:53.647Z,99478.89
2023-01-19T07:55:57.590Z,99482.58
2023-01-19T07:57:03.411Z,99495.06
2023-01-19T07:58:07.532Z,99495.71
2023-01-19T07:59:10.928Z,99503.23
2023-01-19T08:00:14.549Z,99508.35
2023-01-19T08:01:18.910Z,99508.48
2023-01-19T08:02:21.885Z,99509.91
2023-01-19T08:03:24.927Z,99509.30
2023-01-19T08:04:28.774Z,99505.18
2023-01-19T08:05:33.234Z,99502.39
2023-01-19T08:06:39.111Z,99499.98
2023-01-19T08:07:41.978Z,99496.75
2023-01-19T08:08:45.059Z,99499.70
2023-01-19T08:09:47.893Z,99501.19
2023-01-19T08:10:51.455Z,99500.49
2023-01-19T08:11:54.296Z,99497.73
2023-01-19T08:12:58.236Z,99492.64
2023-01-19T08:14:01.262Z,99494.20
2023-01-19T08:15:04.658Z,99487.48
2023-01-19T08:16:07.879Z,99484.96
2023-01-19T08:17:13.709Z,99484.20
2023-01-19T08:18:16.717Z,99483.63
2023-01-19T08:19:19.649Z,99481.13
2023-01-19T08:20:23.391Z,99480.04
2023-01-19T08:21:27.652Z,99479.51
2023-01-19T08:22:30.498Z,99483.08
2023-01-19T08:23:33.444Z,99483.25
2023-01-19T08:24:36.328Z,99480.17
2023-01-19T08:25:45.262Z,99477.15
2023-01-19T08:26:50.661Z,99477.10
2023-01-19T08:27:56.665Z,99472.77
2023-01-19T08:29:03.118Z,99473.70
2023-01-19T08:30:07.003Z,99468.61
2023-01-19T08:31:19.649Z,99466.69
2023-01-19T08:32:23.935Z,99464.22
2023-01-19T08:33:26.873Z,99467.02
2023-01-19T08:34:32.733Z,99472.91
2023-01-19T08:35:38.502Z,99470.47
2023-01-19T08:36:41.423Z,99470.48
2023-01-19T08:37:44.318Z,99475.04
2023-01-19T08:38:47.897Z,99475.94
2023-01-19T08:39:50.982Z,99473.73
2023-01-19T08:40:53.856Z,99473.83
2023-01-19T08:41:56.695Z,99470.04
2023-01-19T08:43:05.825Z,99472.04
2023-01-19T08:44:09.219Z,99470.73
2023-01-19T08:45:12.457Z,99471.41
2023-01-19T08:46:21.723Z,99472.68
2023-01-19T08:47:24.739Z,99474.67
2023-01-19T08:48:27.582Z,99474.71
2023-01-19T08:49:30.649Z,99477.90
2023-01-19T08:50:34.620Z,99476.20
2023-01-19T08:51:38.275Z,99474.97
2023-01-19T08:52:41.127Z,99477.52
2023-01-19T08:53:44.201Z,99480.64
2023-01-19T08:54:47.213Z,99481.38
2023-01-19T08:55:54.660Z,99484.34
2023-01-19T08:56:57.963Z,99488.52
2023-01-19T08:58:02.198Z,99490.02
2023-01-19T09:00:28.204Z,99499.48
2023-01-19T09:01:31.184Z,99500.02
2023-01-19T09:02:35.020Z,99504.60
2023-01-19T09:03:38.108Z,99505.95
2023-01-19T09:04:40.971Z,99504.34
2023-01-19T09:05:43.840Z,99504.18
2023-01-19T09:06:46.729Z,99503.39
2023-01-19T09:07:51.709Z,99503.67
2023-01-19T09:08:54.624Z,99498.02
2023-01-19T09:09:58.040Z,99503.83
2023-01-19T09:11:01.316Z,99503.30
2023-01-19T09:12:04.540Z,99504.97
2023-01-19T09:13:11.065Z,99508.83
2023-01-19T09:14:14.217Z,99513.00
2023-01-19T09:15:17.323Z,99506.80
2023-01-19T09:16:20.257Z,99504.46
2023-01-19T09:17:23.682Z,99505.62
2023-01-19T09:18:26.511Z,99501.77
2023-01-19T09:19:29.318Z,99504.98
2023-01-19T09:20:33.930Z,99503.41
2023-01-19T09:21:36.806Z,99507.50
2023-01-19T09:22:40.308Z,99503.73
2023-01-19T09:23:43.188Z,99510.47
2023-01-19T09:24:47.099Z,99507.11
2023-01-19T09:25:57.028Z,99511.75
2023-01-19T09:27:01.116Z,99518.11
2023-01-19T09:28:06.375Z,99522.02
2023-01-19T09:29:09.240Z,99527.61
2023-01-19T09:30:12.626Z,99524.84
2023-01-19T09:31:16.009Z,99524.47
2023-01-19T09:32:20.702Z,99519.45
2023-01-19T09:33:24.909Z,99517.93
2023-01-19T09:34:27.792Z,99519.20
2023-01-19T09:35:31.621Z,99521.91
2023-01-19T09:36:36.695Z,99518.55
2023-01-19T09:37:39.574Z,99518.05
2023-01-19T09:38:42.640Z,99517.05
2023-01-19T09:39:45.582Z,99518.73
2023-01-19T09:40:52.378Z,99516.71
2023-01-19T09:42:14.508Z,99517.90
2023-01-19T09:43:17.587Z,99520.64
2023-01-19T09:44:28.999Z,99517.56
2023-01-19T09:45:50.857Z,99518.52
2023-01-19T09:46:53.706Z,99517.92
2023-01-19T09:47:58.795Z,99517.06
2023-01-19T09:49:06.758Z,99512.29
2023-01-19T09:50:26.543Z,99506.03
2023-01-19T09:51:35.310Z,99507.01
2023-01-19T09:52:44.011Z,99499.36
2023-01-19T09:53:52.685Z,99500.04
2023-01-19T09:54:59.213Z,99498.79
2023-01-19T09:56:02.645Z,99499.40
2023-01-19T09:57:11.373Z,99496.22
2023-01-19T09:58:19.338Z,99497.02
2023-01-19T09:59:25.490Z,99500.94
2023-01-19T10:00:30.330Z,99496.83
2023-01-19T10:01:48.515Z,99502.30
2023-01-19T10:02:59.364Z,99501.28
2023-01-19T10:04:35.361Z,99501.78
2023-01-19T10:05:49.500Z,99501.10
2023-01-19T10:07:00.582Z,99500.74
2023-01-19T10:08:19.675Z,99502.18
2023-01-19T10:09:40.513Z,99503.48
2023-01-19T10:10:51.987Z,99501.26
2023-01-19T10:12:04.995Z,99494.66
2023-01-19T10:13:34.510Z,99494.16
2023-01-19T10:14:45.575Z,99493.63
2023-01-19T10:16:33.982Z,99495.11
2023-01-19T10:17:49.791Z,99496.50
2023-01-19T10:18:57.571Z,99492.15
2023-01-19T10:20:04.458Z,99494.26
2023-01-19T10:21:16.481Z,99497.13
2023-01-19T10:22:24.438Z,99492.73
2023-01-19T10:23:36.311Z,99493.70
2023-01-19T10:24:42.787Z,99489.84
2023-01-19T10:25:47.143Z,99483.92
2023-01-19T10:26:53.312Z,99483.71
2023-01-19T10:27:58.545Z,99482.48
2023-01-19T10:29:13.729Z,99483.08
2023-01-19T10:30:24.293Z,99482.60
2023-01-19T10:31:27.578Z,99486.52
2023-01-19T10:32:36.128Z,99487.75
2023-01-19T10:33:39.541Z,99482.91
2023-01-19T10:34:42.594Z,99480.58
2023-01-19T10:35:48.268Z,99471.52
2023-01-19T10:36:59.148Z,99466.64
2023-01-19T10:38:02.881Z,99463.14
2023-01-19T10:39:07.168Z,99463.93
2023-01-19T10:40:10.006Z,99468.05
2023-01-19T10:41:20.116Z,99465.53
2023-01-19T10:42:23.097Z,99464.46
2023-01-19T10:43:34.857Z,99465.80
2023-01-19T10:44:37.865Z,99466.98
2023-01-19T10:45:40.777Z,99466.73
2023-01-19T10:46:49.040Z,99468.25
2023-01-19T10:47:54.737Z,99464.05
2023-01-19T10:48:57.976Z,99465.81
2023-01-19T10:50:22.509Z,99469.35
2023-01-19T10:51:26.690Z,99469.58
2023-01-19T10:52:39.963Z,99472.55
2023-01-19T10:53:53.029Z,99479.31
2023-01-19T10:54:57.438Z,99479.85
2023-01-19T10:56:21.348Z,99482.36
2023-01-19T10:57:33.086Z,99482.55
2023-01-19T10:58:35.971Z,99482.16
2023-01-19T10:59:50.911Z,99477.98
2023-01-19T11:00:54.238Z,99479.17
2023-01-19T11:02:28.038Z,99479.52
2023-01-19T11:03:32.276Z,99478.39
2023-01-19T11:04:35.118Z,99479.20
2023-01-19T11:05:38.137Z,99479.84
2023-01-19T11:06:41.095Z,99480.42
2023-01-19T11:07:44.058Z,99480.00
2023-01-19T11:08:51.443Z,99481.21
2023-01-19T11:10:16.131Z,99483.58
2023-01-19T11:11:23.723Z,99482.38
2023-01-19T11:12:26.800Z,99481.84
2023-01-19T11:13:30.190Z,99477.91
2023-01-19T11:14:33.151Z,99479.82
2023-01-19T11:15:42.140Z,99480.00
2023-01-19T11:16:48.429Z,99478.38
2023-01-19T11:17:52.892Z,99479.13
2023-01-19T11:18:57.316Z,99479.77
2023-01-19T11:20:02.273Z,99475.52
2023-01-19T11:21:09.336Z,99481.94
2023-01-19T11:22:23.101Z,99479.21
2023-01-19T11:23:28.763Z,99477.87
2023-01-19T11:24:31.847Z,99474.89
2023-01-19T11:25:36.777Z,99472.51
2023-01-19T11:26:41.412Z,99471.23
2023-01-19T11:27:51.778Z,99470.83
2023-01-19T11:28:57.812Z,99468.23
2023-01-19T11:30:05.409Z,99462.73
2023-01-19T11:31:11.030Z,99456.84
2023-01-19T11:32:22.580Z,99455.42
2023-01-19T11:33:57.507Z,99451.61
2023-01-19T11:35:00.899Z,99453.23
2023-01-19T11:36:16.373Z,99448.17
2023-01-19T11:37:19.296Z,99447.57
2023-01-19T11:38:27.344Z,99444.95
2023-01-19T11:39:33.261Z,99446.92
2023-01-19T11:40:36.318Z,99446.23
2023-01-19T11:41:41.007Z,99446.44
2023-01-19T11:42:44.833Z,99448.15
2023-01-19T11:43:53.042Z,99451.36
2023-01-19T11:45:16.147Z,99450.95
2023-01-19T11:46:19.802Z,99448.68
2023-01-19T11:47:50.380Z,99444.05
2023-01-19T11:49:01.861Z,99439.90
2023-01-19T11:50:21.468Z,99440.19
2023-01-19T11:51:25.533Z,99441.84
2023-01-19T11:52:48.665Z,99444.67
2023-01-19T11:53:53.716Z,99445.44
2023-01-19T11:55:05.693Z,99441.40
2023-01-19T11:56:11.330Z,99444.45
2023-01-19T11:57:17.271Z,99443.45
2023-01-19T11:58:20.652Z,99444.02
2023-01-19T11:59:25.270Z,99444.96
2023-01-19T12:00:31.827Z,99445.29
2023-01-19T12:01:42.611Z,99444.24
2023-01-19T12:02:50.986Z,99441.72
2023-01-19T12:04:14.347Z,99439.30
2023-01-19T12:05:20.447Z,99444.07
2023-01-19T12:06:27.877Z,99441.11
2023-01-19T12:07:35.046Z,99436.48
2023-01-19T12:09:01.483Z,99440.60
2023-01-19T12:10:29.559Z,99441.70
2023-01-19T12:11:40.603Z,99442.69
2023-01-19T12:12:44.181Z,99440.72
2023-01-19T12:13:48.046Z,99440.88
2023-01-19T12:15:05.376Z,99439.56
2023-01-19T12:16:17.902Z,99441.76
2023-01-19T12:17:31.995Z,99431.82
2023-01-19T12:18:46.390Z,99441.88
2023-01-19T12:19:54.972Z,99443.77
2023-01-19T12:20:58.995Z,99446.04
2023-01-19T12:22:04.314Z,99447.05
2023-01-19T12:23:31.218Z,99443.27
2023-01-19T12:24:42.334Z,99443.39
2023-01-19T12:25:58.202Z,99444.80
2023-01-19T12:27:07.594Z,99441.76
2023-01-19T12:28:14.517Z,99443.44
2023-01-19T12:29:22.565Z,99438.88
2023-01-19T12:30:28.497Z,99442.34
2023-01-19T12:31:31.759Z,99439.45
2023-01-19T12:32:36.967Z,99440.73
2023-01-19T12:33:40.469Z,99438.44
2023-01-19T12:34:45.513Z,99437.20
2023-01-19T12:36:06.905Z,99436.38
2023-01-19T12:37:29.117Z,99432.56
2023-01-19T12:38:53.604Z,99434.23
2023-01-19T12:40:31.422Z,99437.98
2023-01-19T12:41:36.503Z,99432.98
2023-01-19T12:42:46.624Z,99427.63
2023-01-19T12:44:12.130Z,99426.71
2023-01-19T12:45:23.624Z,99425.29
2023-01-19T12:46:31.429Z,99424.03
2023-01-19T12:47:36.196Z,99421.17
2023-01-19T12:48:39.567Z,99421.13
2023-01-19T12:49:49.464Z,99420.66
2023-01-19T12:50:52.540Z,99423.94
2023-01-19T12:52:13.216Z,99423.89
2023-01-19T12:53:22.731Z,99422.73
2023-01-19T12:54:31.883Z,99428.41
2023-01-19T12:55:39.260Z,99431.88
2023-01-19T12:56:42.621Z,99431.30
2023-01-19T12:57:57.113Z,99428.44
2023-01-19T12:59:01.008Z,99425.98
2023-01-19T13:00:27.005Z,99423.09
2023-01-19T13:01:30.008Z,99423.08
2023-01-19T13:02:47.482Z,99421.75
2023-01-19T13:04:09.740Z,99423.42
2023-01-19T13:05:25.134Z,99425.06